Time;durP1;ratioP1;P1;durP2;ratioP2;P2;SDS_P1;SDS_P2;PMS_P1;PMS_P2;Temp;Humidity;BMP_temperature;BMP_pressure;BME280_temperature;BME280_humidity;BME280_pressure;Samples;Min_cycle;Max_cycle;Signal;HPM_P1;HPM_P2
2022/03/27 00:00:39;;;;;;;21.83;9.55;;;5.30;99.90;;;;;;5059753;28;20227;-75
2022/03/27 00:03:07;;;;;;;17.27;8.73;;;5.30;99.90;;;;;;5049609;28;20258;-76
2022/03/27 00:05:35;;;;;;;21.45;9.02;;;5.20;99.90;;;;;;5047645;28;20704;-74
2022/03/27 00:08:03;;;;;;;20.85;9.27;;;5.20;99.90;;;;;;5041449;28;20442;-75
2022/03/27 00:11:23;;;;;;;20.02;8.98;;;5.20;99.90;;;;;;5041929;28;20807;-75
2022/03/27 00:13:19;;;;;;;20.92;8.45;;;5.20;99.90;;;;;;5041889;28;20205;-75
2022/03/27 00:15:48;;;;;;;20.50;9.32;;;5.20;99.90;;;;;;5041945;28;20293;-76
2022/03/27 00:18:16;;;;;;;19.67;9.02;;;5.20;99.90;;;;;;5040712;28;20236;-75
2022/03/27 00:20:44;;;;;;;19.42;10.07;;;5.10;99.90;;;;;;5041955;28;20250;-76
2022/03/27 00:23:12;;;;;;;18.50;9.15;;;5.10;99.90;;;;;;5042618;28;20236;-76
2022/03/27 00:25:40;;;;;;;19.52;8.80;;;5.10;99.90;;;;;;5042932;28;20305;-75
2022/03/27 00:28:11;;;;;;;22.40;9.75;;;5.10;99.90;;;;;;5042191;28;20707;-75
2022/03/27 00:30:39;;;;;;;21.67;9.68;;;5.10;99.90;;;;;;5042464;28;20263;-75
2022/03/27 00:33:08;;;;;;;21.55;10.77;;;5.20;99.90;;;;;;5042569;28;20206;-76
2022/03/27 00:35:36;;;;;;;29.20;10.18;;;5.10;99.90;;;;;;5042559;28;20737;-76
2022/03/27 00:38:05;;;;;;;28.48;9.93;;;5.00;99.90;;;;;;5042915;28;20204;-75
2022/03/27 00:40:33;;;;;;;21.55;10.35;;;5.10;99.90;;;;;;5042966;28;20253;-76
2022/03/27 00:43:01;;;;;;;16.65;8.75;;;5.00;99.90;;;;;;5042741;28;20198;-76
2022/03/27 00:45:29;;;;;;;15.80;8.27;;;5.10;99.90;;;;;;5042484;28;20872;-76
2022/03/27 00:47:57;;;;;;;21.63;9.75;;;5.10;99.90;;;;;;5041166;28;20516;-76
2022/03/27 00:50:26;;;;;;;19.35;8.43;;;5.10;99.90;;;;;;5042119;28;20225;-76
2022/03/27 00:52:54;;;;;;;18.25;9.45;;;5.10;99.90;;;;;;5042889;28;20625;-74
2022/03/27 00:55:22;;;;;;;22.10;9.02;;;5.10;99.90;;;;;;5043552;28;20236;-76
2022/03/27 00:57:50;;;;;;;23.45;9.20;;;5.10;99.90;;;;;;5043146;28;20259;-76
2022/03/27 01:00:43;;;;;;;17.20;9.20;;;5.10;99.90;;;;;;5041992;28;20230;-76
2022/03/27 01:03:13;;;;;;;29.50;9.77;;;5.00;99.90;;;;;;5040810;28;20296;-75
2022/03/27 01:05:43;;;;;;;23.38;10.00;;;5.00;99.90;;;;;;5041768;28;20328;-76
2022/03/27 01:08:12;;;;;;;27.52;11.05;;;4.90;99.90;;;;;;5040960;28;20280;-76
2022/03/27 01:10:41;;;;;;;21.95;10.18;;;4.90;99.90;;;;;;5041354;28;20221;-76
2022/03/27 01:13:12;;;;;;;30.20;9.50;;;5.00;99.90;;;;;;5041296;28;20455;-75
2022/03/27 01:15:43;;;;;;;21.77;9.45;;;5.00;99.90;;;;;;5041141;28;20202;-75
2022/03/27 01:18:12;;;;;;;20.35;10.45;;;4.90;99.90;;;;;;5040984;28;20631;-75
2022/03/27 01:20:43;;;;;;;21.27;8.95;;;4.90;99.90;;;;;;5040888;28;20490;-76
2022/03/27 01:23:13;;;;;;;16.83;9.30;;;4.90;99.90;;;;;;5040793;28;20725;-75
2022/03/27 01:25:43;;;;;;;33.05;11.60;;;4.90;99.90;;;;;;5040972;28;20289;-76
2022/03/27 01:28:13;;;;;;;17.05;9.57;;;4.90;99.90;;;;;;5040825;28;20225;-77
2022/03/27 01:30:41;;;;;;;22.15;9.75;;;4.90;99.90;;;;;;5041901;28;20229;-77
2022/03/27 01:33:10;;;;;;;19.20;9.70;;;4.90;99.90;;;;;;5041796;28;20238;-75
2022/03/27 01:35:39;;;;;;;23.17;11.25;;;4.90;99.90;;;;;;5041075;28;20480;-75
2022/03/27 01:38:08;;;;;;;17.00;9.95;;;4.80;99.90;;;;;;5040513;28;20198;-76
2022/03/27 01:40:36;;;;;;;19.88;11.10;;;4.80;99.90;;;;;;5041091;28;20383;-77
2022/03/27 01:43:04;;;;;;;25.55;9.85;;;4.80;99.90;;;;;;5041195;28;20566;-76
2022/03/27 01:45:31;;;;;;;18.55;10.07;;;4.80;99.90;;;;;;5041424;28;20454;-77
2022/03/27 01:48:00;;;;;;;20.00;9.82;;;4.70;99.90;;;;;;5041995;28;20788;-78
2022/03/27 01:50:27;;;;;;;19.92;10.65;;;4.70;99.90;;;;;;5043875;28;20253;-77
2022/03/27 01:52:55;;;;;;;22.23;11.77;;;4.70;99.90;;;;;;5043031;28;20669;-78
2022/03/27 01:55:25;;;;;;;20.23;10.77;;;4.70;99.90;;;;;;5047599;28;20206;-73
2022/03/27 01:57:53;;;;;;;22.75;11.18;;;4.70;99.90;;;;;;5055882;28;20205;-71
2022/03/27 02:00:20;;;;;;;21.15;11.55;;;4.70;99.90;;;;;;5042520;28;20468;-71
2022/03/27 02:02:48;;;;;;;21.42;9.45;;;4.70;99.90;;;;;;5039868;28;20686;-71
2022/03/27 02:05:16;;;;;;;22.05;10.18;;;4.80;99.90;;;;;;5049012;28;20560;-70
2022/03/27 02:07:49;;;;;;;28.08;12.35;;;4.80;99.90;;;;;;5042516;28;20772;-70
2022/03/27 02:10:18;;;;;;;28.73;11.15;;;4.80;99.90;;;;;;5039614;28;20301;-67
2022/03/27 02:12:47;;;;;;;27.90;11.55;;;4.80;99.90;;;;;;5038985;28;20305;-70
2022/03/27 02:15:15;;;;;;;20.10;11.50;;;4.70;99.90;;;;;;5046744;28;20227;-70
2022/03/27 02:17:43;;;;;;;39.00;13.25;;;4.60;99.90;;;;;;5058547;28;20310;-70
2022/03/27 02:20:12;;;;;;;25.90;11.70;;;4.60;99.90;;;;;;5058634;28;20228;-69
2022/03/27 02:22:40;;;;;;;27.38;13.80;;;4.50;99.90;;;;;;5055360;28;20442;-70
2022/03/27 02:25:09;;;;;;;23.38;11.90;;;4.50;99.90;;;;;;5057686;28;20203;-69
2022/03/27 02:27:38;;;;;;;22.35;12.45;;;4.50;99.90;;;;;;5057560;28;20394;-69
2022/03/27 02:30:09;;;;;;;34.33;11.55;;;4.50;99.90;;;;;;5057713;28;20723;-69
2022/03/27 02:32:37;;;;;;;22.23;10.93;;;4.40;99.90;;;;;;5058482;28;20201;-71
2022/03/27 02:35:06;;;;;;;22.67;10.20;;;4.40;99.90;;;;;;5059334;28;20205;-73
2022/03/27 02:37:34;;;;;;;20.95;11.90;;;4.40;99.90;;;;;;5057194;28;20272;-68
2022/03/27 02:40:02;;;;;;;25.73;12.35;;;4.30;99.90;;;;;;5053354;28;20335;-68
2022/03/27 02:42:29;;;;;;;21.58;11.40;;;4.30;99.90;;;;;;5038738;28;20488;-70
2022/03/27 02:44:57;;;;;;;22.85;11.77;;;4.30;99.90;;;;;;5038439;28;20854;-69
2022/03/27 02:47:26;;;;;;;27.75;12.65;;;4.20;99.90;;;;;;5049864;28;20349;-68
2022/03/27 02:49:54;;;;;;;25.75;11.48;;;4.20;99.90;;;;;;5058730;28;20877;-67
2022/03/27 02:52:22;;;;;;;26.95;11.95;;;4.20;99.90;;;;;;5059305;28;20197;-70
2022/03/27 02:54:50;;;;;;;29.08;12.30;;;4.20;99.90;;;;;;5054093;28;20303;-70
2022/03/27 02:57:18;;;;;;;24.05;13.23;;;4.20;99.90;;;;;;5058558;28;20262;-70
2022/03/27 02:59:47;;;;;;;25.05;12.05;;;4.10;99.90;;;;;;5058566;28;20564;-70
2022/03/27 03:02:15;;;;;;;28.45;11.60;;;4.10;99.90;;;;;;5059223;28;20300;-69
2022/03/27 03:04:44;;;;;;;28.70;12.48;;;4.10;99.90;;;;;;5059656;28;20803;-70
2022/03/27 03:07:13;;;;;;;27.40;13.75;;;4.10;99.90;;;;;;5059135;28;20217;-70
2022/03/27 03:09:42;;;;;;;27.52;12.80;;;4.10;99.90;;;;;;5059075;28;20295;-69
2022/03/27 03:12:11;;;;;;;24.73;11.40;;;4.10;99.90;;;;;;5059273;28;20707;-69
2022/03/27 03:14:39;;;;;;;34.30;14.10;;;4.10;99.90;;;;;;5059562;28;20279;-69
2022/03/27 03:17:09;;;;;;;24.90;12.45;;;4.10;99.90;;;;;;5059952;28;20247;-69
2022/03/27 03:19:38;;;;;;;22.77;12.00;;;4.00;99.90;;;;;;5060172;28;20587;-72
2022/03/27 03:22:09;;;;;;;25.45;12.48;;;4.00;99.90;;;;;;5060189;28;20201;-70
2022/03/27 03:24:37;;;;;;;26.35;12.65;;;4.00;99.90;;;;;;5059509;28;20201;-69
2022/03/27 03:27:05;;;;;;;27.67;14.80;;;4.00;99.90;;;;;;5059420;28;20197;-69
2022/03/27 03:29:34;;;;;;;29.00;14.15;;;4.00;99.90;;;;;;5058772;28;20209;-70
2022/03/27 03:32:02;;;;;;;22.02;13.52;;;4.00;99.90;;;;;;5059052;28;20495;-69
2022/03/27 03:34:30;;;;;;;28.75;15.00;;;4.10;99.90;;;;;;5059291;28;20251;-70
2022/03/27 03:36:58;;;;;;;29.00;15.48;;;4.10;99.90;;;;;;5055968;28;20209;-69
2022/03/27 03:39:28;;;;;;;27.48;14.40;;;4.10;99.90;;;;;;5058714;28;20284;-70
2022/03/27 03:41:56;;;;;;;31.40;14.50;;;4.10;99.90;;;;;;5058711;28;20757;-70
2022/03/27 03:44:26;;;;;;;23.85;14.50;;;4.20;99.90;;;;;;5055738;28;20649;-70
2022/03/27 03:46:55;;;;;;;34.58;14.48;;;4.20;99.90;;;;;;5039039;28;20205;-69
2022/03/27 03:49:24;;;;;;;23.95;15.00;;;4.20;99.90;;;;;;5043728;28;20218;-69
2022/03/27 03:51:53;;;;;;;33.92;16.48;;;4.20;99.90;;;;;;5043610;28;20205;-70
2022/03/27 03:54:20;;;;;;;23.27;14.65;;;4.20;99.90;;;;;;5044281;28;20248;-70
2022/03/27 03:56:50;;;;;;;26.00;15.05;;;4.30;99.90;;;;;;5044029;28;20302;-72
2022/03/27 03:59:18;;;;;;;21.17;14.10;;;4.30;99.90;;;;;;5044290;28;20227;-70
2022/03/27 04:02:01;;;;;;;21.98;13.40;;;4.20;99.90;;;;;;5048101;28;20228;-70
2022/03/27 04:04:30;;;;;;;24.45;13.88;;;4.30;99.90;;;;;;5039255;28;20225;-70
2022/03/27 04:06:58;;;;;;;21.95;13.80;;;4.20;99.90;;;;;;5038360;28;20432;-69
2022/03/27 04:09:27;;;;;;;17.50;13.13;;;4.20;99.90;;;;;;5037866;28;20628;-70
2022/03/27 04:11:56;;;;;;;26.90;14.98;;;4.10;99.90;;;;;;5037910;28;20198;-70
2022/03/27 04:14:24;;;;;;;25.80;13.98;;;4.20;99.90;;;;;;5037873;28;20201;-71
2022/03/27 04:16:53;;;;;;;21.92;14.70;;;4.20;99.90;;;;;;5047577;28;20455;-70
2022/03/27 04:19:21;;;;;;;24.73;13.75;;;4.20;99.90;;;;;;5061389;28;20731;-71
2022/03/27 04:21:49;;;;;;;17.73;13.20;;;4.10;99.90;;;;;;5071896;28;20743;-71
2022/03/27 04:24:17;;;;;;;26.63;14.20;;;4.10;99.90;;;;;;5061163;28;20209;-71
2022/03/27 04:26:44;;;;;;;21.48;13.82;;;4.10;99.90;;;;;;5057995;28;20518;-70
2022/03/27 04:29:14;;;;;;;20.85;13.52;;;4.10;99.90;;;;;;5057811;28;20221;-69
2022/03/27 04:31:43;;;;;;;26.38;13.80;;;4.10;99.90;;;;;;5058138;28;20315;-70
2022/03/27 04:34:11;;;;;;;21.13;13.40;;;4.10;99.90;;;;;;5058283;28;20219;-71
2022/03/27 04:36:40;;;;;;;21.98;13.60;;;4.10;99.90;;;;;;5057563;28;20300;-70
2022/03/27 04:39:08;;;;;;;19.65;13.13;;;4.00;99.90;;;;;;5059416;28;20232;-70
2022/03/27 04:41:36;;;;;;;22.60;14.35;;;4.10;99.90;;;;;;5061751;28;20482;-70
2022/03/27 04:44:05;;;;;;;21.05;12.77;;;4.10;99.90;;;;;;5061890;28;20300;-69
2022/03/27 04:46:34;;;;;;;21.75;13.30;;;4.10;99.90;;;;;;5061652;28;20274;-70
2022/03/27 04:49:02;;;;;;;17.08;12.90;;;4.20;99.90;;;;;;5060636;28;20621;-70
2022/03/27 04:51:30;;;;;;;16.08;12.10;;;4.20;99.90;;;;;;5060627;28;20248;-70
2022/03/27 04:53:58;;;;;;;19.10;12.85;;;4.30;99.90;;;;;;5061052;28;20232;-70
2022/03/27 04:56:26;;;;;;;18.58;12.70;;;4.30;99.90;;;;;;5061299;28;20291;-69
2022/03/27 04:58:54;;;;;;;18.38;12.07;;;4.30;99.90;;;;;;5061314;28;20197;-69
2022/03/27 05:01:22;;;;;;;14.98;11.95;;;4.30;99.90;;;;;;5060729;28;20481;-69
2022/03/27 05:03:52;;;;;;;16.77;12.30;;;4.40;99.90;;;;;;5061449;28;20215;-69
2022/03/27 05:06:20;;;;;;;20.92;11.30;;;4.40;99.90;;;;;;5060570;28;20201;-69
2022/03/27 05:08:47;;;;;;;13.20;11.45;;;4.40;99.90;;;;;;5060535;28;20537;-69
2022/03/27 05:11:16;;;;;;;18.85;12.10;;;4.50;99.90;;;;;;5060785;28;20225;-69
2022/03/27 05:13:43;;;;;;;14.60;11.00;;;4.50;99.90;;;;;;5060482;28;20767;-69
2022/03/27 05:16:12;;;;;;;18.05;11.60;;;4.50;99.90;;;;;;5060180;28;20499;-69
2022/03/27 05:18:43;;;;;;;28.00;12.60;;;4.60;99.90;;;;;;5060506;28;20212;-69
2022/03/27 05:21:12;;;;;;;16.13;11.55;;;4.50;99.90;;;;;;5060372;28;20374;-69
2022/03/27 05:23:40;;;;;;;14.73;11.23;;;4.50;99.90;;;;;;5060093;28;20292;-70
2022/03/27 05:26:08;;;;;;;16.38;11.20;;;4.60;99.90;;;;;;5060275;28;20233;-69
2022/03/27 05:28:36;;;;;;;16.65;12.43;;;4.60;99.90;;;;;;5059318;28;20480;-71
2022/03/27 05:31:08;;;;;;;14.65;11.15;;;4.60;99.90;;;;;;5060237;28;20573;-70
2022/03/27 05:33:37;;;;;;;12.60;10.35;;;4.60;99.90;;;;;;5060340;28;20846;-69
2022/03/27 05:36:07;;;;;;;13.85;11.35;;;4.60;99.90;;;;;;5057576;28;20295;-68
2022/03/27 05:38:37;;;;;;;16.33;11.43;;;4.60;99.90;;;;;;5061382;28;20331;-67
2022/03/27 05:41:05;;;;;;;12.57;9.15;;;4.60;99.90;;;;;;5060218;28;20231;-69
2022/03/27 05:43:34;;;;;;;11.32;10.13;;;4.70;99.90;;;;;;5041530;28;20198;-69
2022/03/27 05:46:03;;;;;;;10.65;9.57;;;4.70;99.90;;;;;;5048213;28;20765;-69
2022/03/27 05:48:35;;;;;;;16.83;12.02;;;4.80;99.90;;;;;;5060589;28;20220;-68
2022/03/27 05:51:03;;;;;;;16.58;11.70;;;4.70;99.90;;;;;;5042619;28;20229;-68
2022/03/27 05:53:31;;;;;;;13.32;9.55;;;4.70;99.90;;;;;;5041085;28;20224;-68
2022/03/27 05:56:01;;;;;;;21.63;12.30;;;4.70;99.90;;;;;;5058669;28;20205;-68
2022/03/27 05:58:29;;;;;;;24.35;12.85;;;4.70;99.90;;;;;;5061405;28;20457;-68
2022/03/27 06:00:57;;;;;;;34.50;13.98;;;4.80;99.90;;;;;;5060619;28;20289;-68
2022/03/27 06:03:26;;;;;;;27.52;14.35;;;4.90;99.90;;;;;;5060094;28;20209;-68
2022/03/27 06:05:54;;;;;;;21.17;12.98;;;4.90;99.90;;;;;;5059971;28;20216;-69
2022/03/27 06:08:22;;;;;;;31.15;13.85;;;5.00;99.90;;;;;;5057586;28;20431;-67
2022/03/27 06:10:50;;;;;;;21.65;13.98;;;5.00;99.90;;;;;;5040149;28;20222;-67
2022/03/27 06:13:21;;;;;;;23.35;13.63;;;5.10;99.90;;;;;;5060980;28;20563;-68
2022/03/27 06:15:50;;;;;;;28.92;14.70;;;5.20;99.90;;;;;;5060742;28;20652;-67
2022/03/27 06:18:18;;;;;;;22.50;14.02;;;5.30;99.90;;;;;;5060834;28;20461;-69
2022/03/27 06:20:46;;;;;;;22.73;12.80;;;5.40;99.90;;;;;;5060696;28;20848;-72
2022/03/27 06:23:14;;;;;;;30.15;15.70;;;5.50;99.90;;;;;;5061156;28;20243;-72
2022/03/27 06:25:42;;;;;;;18.70;13.07;;;5.60;99.90;;;;;;5060145;28;20327;-70
2022/03/27 06:28:10;;;;;;;21.13;12.90;;;5.60;99.90;;;;;;5059756;28;20739;-70
2022/03/27 06:30:40;;;;;;;17.70;12.73;;;5.70;99.90;;;;;;5059627;28;20321;-70
2022/03/27 06:33:08;;;;;;;25.27;14.68;;;5.70;99.90;;;;;;5059663;28;20204;-69
2022/03/27 06:35:37;;;;;;;19.52;13.73;;;5.80;99.90;;;;;;5052525;28;20318;-71
2022/03/27 06:38:05;;;;;;;31.40;13.57;;;5.80;99.90;;;;;;5039834;28;20427;-70
2022/03/27 06:40:33;;;;;;;28.15;13.70;;;5.90;99.90;;;;;;5054631;28;20310;-72
2022/03/27 06:43:01;;;;;;;23.48;13.52;;;5.90;99.90;;;;;;5061718;28;20193;-72
2022/03/27 06:45:30;;;;;;;20.40;13.40;;;6.00;99.90;;;;;;5072754;28;20193;-71
2022/03/27 06:48:00;;;;;;;23.42;14.75;;;6.10;99.90;;;;;;5061472;28;20464;-70
2022/03/27 06:50:28;;;;;;;27.48;13.38;;;6.20;99.90;;;;;;5048925;28;20217;-70
2022/03/27 06:52:56;;;;;;;23.60;13.98;;;6.20;99.90;;;;;;5055516;28;20592;-74
2022/03/27 06:55:27;;;;;;;20.50;13.02;;;6.30;99.90;;;;;;5056284;28;20287;-71
2022/03/27 06:57:55;;;;;;;25.42;13.55;;;6.40;99.90;;;;;;5047743;28;20674;-76
2022/03/27 07:03:10;;;;;;;18.50;12.25;;;6.40;99.90;;;;;;5042585;28;20270;-74
2022/03/27 07:05:40;;;;;;;28.35;14.30;;;6.40;99.90;;;;;;5065577;28;20201;-72
2022/03/27 07:08:10;;;;;;;23.77;11.75;;;6.40;99.90;;;;;;5045670;28;20379;-73
2022/03/27 07:10:38;;;;;;;23.38;13.10;;;6.40;99.90;;;;;;5041021;28;20267;-75
2022/03/27 07:13:08;;;;;;;19.15;12.23;;;6.40;99.90;;;;;;5039075;28;20440;-74
2022/03/27 07:15:36;;;;;;;15.23;11.07;;;6.40;99.90;;;;;;5042892;28;20742;-73
2022/03/27 07:18:05;;;;;;;19.65;11.52;;;6.50;99.90;;;;;;5038579;28;20529;-73
2022/03/27 07:20:37;;;;;;;18.73;11.38;;;6.60;99.90;;;;;;5054918;28;20234;-74
2022/03/27 07:23:09;;;;;;;16.98;9.93;;;6.70;99.90;;;;;;5057956;28;20758;-73
2022/03/27 07:25:42;;;;;;;18.88;10.98;;;6.70;99.90;;;;;;5038107;28;20202;-74
2022/03/27 07:28:12;;;;;;;19.92;11.20;;;6.70;99.90;;;;;;5038232;28;20292;-73
2022/03/27 07:30:42;;;;;;;17.35;10.80;;;6.70;99.90;;;;;;5037880;28;20233;-73
2022/03/27 07:33:10;;;;;;;20.33;12.07;;;6.70;99.90;;;;;;5038616;28;20453;-73
2022/03/27 07:35:40;;;;;;;25.73;11.90;;;6.70;99.90;;;;;;5037709;28;20705;-73
2022/03/27 07:38:09;;;;;;;20.05;10.52;;;6.70;99.90;;;;;;5037986;28;20689;-73
2022/03/27 07:40:38;;;;;;;30.25;12.05;;;6.60;99.90;;;;;;5057207;28;20544;-74
2022/03/27 07:43:05;;;;;;;27.80;13.63;;;6.60;99.90;;;;;;5058117;28;20205;-73
2022/03/27 07:45:35;;;;;;;23.48;11.77;;;6.70;99.90;;;;;;5058517;28;20540;-74
2022/03/27 07:48:03;;;;;;;23.95;13.60;;;6.70;99.90;;;;;;5058283;28;20687;-71
2022/03/27 07:50:32;;;;;;;24.80;12.20;;;6.70;99.90;;;;;;5058423;28;20440;-73
2022/03/27 07:53:02;;;;;;;26.13;12.68;;;6.90;99.90;;;;;;5058660;28;20533;-73
2022/03/27 07:55:32;;;;;;;24.25;12.90;;;7.00;99.90;;;;;;5059078;28;20374;-73
2022/03/27 07:58:00;;;;;;;24.13;11.77;;;7.20;99.90;;;;;;5057790;28;20595;-72
2022/03/27 08:00:28;;;;;;;31.15;13.45;;;7.30;99.90;;;;;;5052157;28;20535;-73
2022/03/27 08:02:57;;;;;;;26.98;13.07;;;7.40;99.90;;;;;;5058885;28;20533;-72
2022/03/27 08:05:26;;;;;;;24.42;13.25;;;7.50;99.90;;;;;;5058986;28;20296;-73
2022/03/27 08:07:55;;;;;;;28.65;13.30;;;7.70;99.90;;;;;;5059555;28;20208;-73
2022/03/27 08:10:24;;;;;;;26.52;12.85;;;7.80;99.90;;;;;;5057855;28;20221;-73
2022/03/27 08:12:52;;;;;;;32.20;14.02;;;8.00;99.90;;;;;;5038924;28;20210;-73
2022/03/27 08:15:21;;;;;;;32.63;14.82;;;8.10;99.90;;;;;;5042814;28;20292;-74
2022/03/27 08:17:53;;;;;;;27.05;14.68;;;8.20;99.90;;;;;;5042906;28;20232;-71
2022/03/27 08:20:23;;;;;;;30.95;14.88;;;8.20;99.90;;;;;;5042913;28;20253;-74
2022/03/27 08:22:51;;;;;;;32.63;14.35;;;8.30;99.90;;;;;;5042641;28;20201;-73
2022/03/27 08:28:03;;;;;;;25.17;14.75;;;8.20;99.90;;;;;;5062616;28;20200;-74
2022/03/27 08:30:31;;;;;;;28.88;15.45;;;8.30;99.90;;;;;;5057049;28;20712;-75
2022/03/27 08:32:58;;;;;;;35.80;17.27;;;8.30;99.90;;;;;;5044120;28;20213;-73
2022/03/27 08:35:26;;;;;;;34.35;17.38;;;8.30;99.90;;;;;;5043684;28;20205;-74
2022/03/27 08:37:54;;;;;;;35.80;17.70;;;8.20;99.90;;;;;;5042008;28;20202;-72
2022/03/27 08:40:22;;;;;;;28.63;16.08;;;8.10;99.90;;;;;;5042221;28;20852;-74
2022/03/27 08:42:50;;;;;;;33.72;17.20;;;8.10;99.90;;;;;;5041754;28;20300;-73
2022/03/27 08:45:20;;;;;;;36.00;17.48;;;8.10;99.90;;;;;;5042763;28;20502;-74
2022/03/27 08:47:48;;;;;;;41.50;19.65;;;8.10;99.90;;;;;;5042440;28;20232;-74
2022/03/27 08:50:29;;;;;;;33.45;17.80;;;8.20;99.90;;;;;;5042129;28;20746;-74
2022/03/27 08:53:00;;;;;;;35.33;17.13;;;8.20;99.90;;;;;;5055425;28;20209;-72
2022/03/27 08:55:39;;;;;;;38.42;16.70;;;8.20;99.90;;;;;;5056791;28;20197;-74
2022/03/27 08:58:09;;;;;;;38.33;17.02;;;8.10;99.90;;;;;;5063887;28;20235;-79
2022/03/27 09:00:39;;;;;;;39.50;17.65;;;8.20;99.90;;;;;;5054733;28;20493;-73
2022/03/27 09:03:08;;;;;;;32.78;15.27;;;8.10;99.90;;;;;;5058130;28;20221;-72
2022/03/27 09:05:37;;;;;;;34.08;16.35;;;8.20;99.90;;;;;;5063702;28;20303;-73
2022/03/27 09:08:09;;;;;;;31.00;14.00;;;8.20;99.90;;;;;;5058237;28;20363;-75
2022/03/27 09:10:38;;;;;;;37.45;16.08;;;8.20;99.90;;;;;;5055424;28;20806;-73
2022/03/27 09:13:11;;;;;;;37.38;14.30;;;8.20;99.90;;;;;;5062613;28;20688;-72
2022/03/27 09:15:41;;;;;;;29.85;12.18;;;8.30;99.90;;;;;;5062201;28;20291;-74
2022/03/27 09:18:10;;;;;;;33.17;14.52;;;8.30;99.90;;;;;;5057178;28;20210;-73
2022/03/27 09:20:41;;;;;;;32.35;13.55;;;8.50;99.90;;;;;;5049285;28;20392;-73
2022/03/27 09:23:15;;;;;;;33.03;14.18;;;8.60;99.90;;;;;;5060263;28;20220;-73
2022/03/27 09:25:45;;;;;;;32.15;13.40;;;8.70;99.90;;;;;;5060681;28;20205;-72
2022/03/27 09:28:13;;;;;;;24.75;11.73;;;8.90;99.90;;;;;;5060201;28;20664;-69
2022/03/27 09:30:43;;;;;;;36.47;11.88;;;8.90;99.90;;;;;;5060864;28;20223;-71
2022/03/27 09:33:11;;;;;;;24.33;11.13;;;9.00;99.90;;;;;;5060804;28;20760;-72
2022/03/27 09:35:39;;;;;;;26.70;10.88;;;9.10;99.90;;;;;;5058364;28;20450;-70
2022/03/27 09:38:19;;;;;;;27.63;9.52;;;9.10;99.90;;;;;;5061515;28;20216;-74
2022/03/27 09:40:47;;;;;;;25.67;10.00;;;9.30;99.90;;;;;;5060698;28;20216;-70
2022/03/27 09:43:16;;;;;;;34.80;10.70;;;9.40;99.90;;;;;;5060865;28;20215;-72
2022/03/27 09:45:56;;;;;;;21.20;9.90;;;9.50;99.90;;;;;;5060747;28;20197;-70
2022/03/27 09:48:25;;;;;;;23.50;9.52;;;9.60;99.90;;;;;;5059647;28;20215;-68
2022/03/27 09:50:55;;;;;;;24.63;8.93;;;9.60;99.90;;;;;;5052426;28;20753;-76
2022/03/27 09:53:25;;;;;;;18.42;8.50;;;9.70;99.90;;;;;;5058786;28;20554;-73
2022/03/27 09:56:10;;;;;;;23.23;9.07;;;9.80;99.90;;;;;;5060711;28;20284;-69
2022/03/27 09:58:39;;;;;;;24.58;10.15;;;9.90;99.90;;;;;;5059067;28;20197;-73
2022/03/27 10:01:13;;;;;;;22.58;8.30;;;9.90;99.90;;;;;;5060161;28;20221;-71
2022/03/27 10:04:00;;;;;;;21.23;8.85;;;10.10;99.90;;;;;;5059321;28;20228;-72
2022/03/27 10:06:30;;;;;;;24.23;9.30;;;10.20;99.90;;;;;;5059500;28;20404;-72
2022/03/27 10:09:00;;;;;;;17.65;8.77;;;10.20;99.90;;;;;;5059840;28;20484;-70
2022/03/27 10:11:28;;;;;;;23.00;9.03;;;10.30;99.90;;;;;;5059357;28;20228;-72
2022/03/27 10:13:57;;;;;;;19.92;9.68;;;10.40;99.90;;;;;;5059798;28;20481;-72
2022/03/27 10:16:30;;;;;;;23.77;8.48;;;10.50;99.90;;;;;;5059359;28;20209;-71
2022/03/27 10:19:05;;;;;;;17.03;8.47;;;10.50;99.90;;;;;;5059150;28;20698;-71
2022/03/27 10:21:35;;;;;;;22.13;9.57;;;10.60;99.90;;;;;;5057832;28;20818;-71
2022/03/27 10:24:09;;;;;;;19.05;10.60;;;10.70;99.90;;;;;;5059011;28;20193;-71
2022/03/27 10:26:39;;;;;;;18.65;9.63;;;10.60;99.90;;;;;;5057786;28;20204;-71
2022/03/27 10:29:10;;;;;;;16.48;8.57;;;10.70;99.90;;;;;;5058328;28;20274;-71
2022/03/27 10:31:39;;;;;;;18.52;10.32;;;10.80;99.90;;;;;;5059873;28;20425;-71
2022/03/27 10:34:11;;;;;;;20.85;9.25;;;10.80;99.90;;;;;;5059544;28;20284;-71
2022/03/27 10:36:48;;;;;;;21.65;10.98;;;10.80;99.90;;;;;;5059285;28;20730;-68
2022/03/27 10:39:24;;;;;;;18.00;9.85;;;10.80;99.90;;;;;;5055441;28;20209;-69
2022/03/27 10:42:02;;;;;;;25.67;13.33;;;10.90;99.90;;;;;;5059764;28;20464;-69
2022/03/27 10:44:37;;;;;;;26.20;12.03;;;10.90;99.90;;;;;;5058876;28;20628;-69
2022/03/27 10:47:14;;;;;;;21.33;12.35;;;11.00;99.90;;;;;;5059440;28;20471;-69
2022/03/27 10:49:43;;;;;;;26.88;12.70;;;11.00;99.90;;;;;;5057049;28;20667;-68
2022/03/27 10:52:11;;;;;;;22.58;13.93;;;11.00;99.90;;;;;;5059139;28;20308;-69
2022/03/27 10:54:57;;;;;;;28.63;15.68;;;11.00;99.90;;;;;;5056421;28;20460;-69
2022/03/27 10:57:29;;;;;;;28.50;14.40;;;11.10;99.90;;;;;;5058681;28;20299;-70
2022/03/27 11:00:01;;;;;;;27.77;14.80;;;11.10;99.90;;;;;;5058769;28;20543;-68
2022/03/27 11:02:47;;;;;;;22.40;13.87;;;11.20;99.90;;;;;;5059826;28;20538;-69
2022/03/27 11:05:49;;;;;;;29.43;15.57;;;11.30;99.90;;;;;;5057079;28;20556;-69
2022/03/27 11:08:45;;;;;;;32.67;17.07;;;11.40;99.90;;;;;;5052571;28;20451;-69
2022/03/27 11:11:36;;;;;;;25.60;15.30;;;11.40;99.90;;;;;;5056727;28;20538;-70
2022/03/27 11:14:08;;;;;;;30.37;14.90;;;11.40;99.90;;;;;;5059292;28;20906;-70
2022/03/27 11:17:12;;;;;;;27.70;15.07;;;11.50;99.90;;;;;;5060929;28;20967;-70
2022/03/27 11:19:44;;;;;;;26.95;16.20;;;11.60;99.90;;;;;;5059238;28;20431;-70
2022/03/27 11:22:55;;;;;;;25.93;13.30;;;11.70;99.90;;;;;;5059171;28;20209;-72
2022/03/27 11:25:28;;;;;;;30.47;15.00;;;11.80;99.90;;;;;;5038457;28;20799;-72
2022/03/27 11:27:58;;;;;;;25.60;13.90;;;11.90;99.90;;;;;;5057863;28;20492;-71
2022/03/27 11:30:26;;;;;;;22.90;14.30;;;12.00;99.90;;;;;;5052014;28;20490;-72
2022/03/27 11:33:18;;;;;;;20.87;13.27;;;12.10;99.90;;;;;;5055419;28;20804;-72
2022/03/27 11:36:25;;;;;;;22.33;11.83;;;12.20;99.90;;;;;;5046587;28;20868;-72
2022/03/27 11:39:02;;;;;;;22.10;13.27;;;12.30;99.90;;;;;;5039538;28;20428;-71
2022/03/27 11:41:37;;;;;;;17.33;12.73;;;12.20;99.90;;;;;;5041732;28;20451;-73
2022/03/27 11:44:23;;;;;;;20.90;12.70;;;12.30;99.90;;;;;;5057553;28;20854;-70
2022/03/27 11:46:53;;;;;;;27.37;12.63;;;12.30;99.90;;;;;;5059061;28;20775;-71
2022/03/27 11:52:41;;;;;;;19.63;10.70;;;12.30;99.90;;;;;;4688260;28;10000203;-72
2022/03/27 11:55:25;;;;;;;17.53;11.63;;;12.40;99.90;;;;;;5050660;28;20311;-72
2022/03/27 11:58:00;;;;;;;18.53;11.27;;;12.30;99.90;;;;;;5052021;28;20475;-72
2022/03/27 12:00:45;;;;;;;20.80;11.70;;;12.40;99.90;;;;;;5061387;28;20474;-72
2022/03/27 12:03:23;;;;;;;17.50;10.03;;;12.30;99.90;;;;;;5053379;28;20444;-71
2022/03/27 12:06:19;;;;;;;16.30;9.80;;;12.40;99.90;;;;;;5054294;28;20449;-70
2022/03/27 12:09:40;;;;;;;15.00;8.50;;;12.40;99.90;;;;;;5062674;28;20474;-71
2022/03/27 12:12:17;;;;;;;17.80;9.30;;;12.50;99.90;;;;;;5036568;28;20910;-72
2022/03/27 12:15:05;;;;;;;13.13;9.70;;;12.50;99.90;;;;;;5046291;28;20455;-71
2022/03/27 12:21:26;;;;;;;16.37;9.47;;;12.50;99.90;;;;;;5060640;28;21041;-70
2022/03/27 12:24:04;;;;;;;15.37;10.37;;;12.50;99.90;;;;;;5050993;28;20469;-71
2022/03/27 12:29:43;;;;;;;19.40;9.67;;;12.40;99.90;;;;;;5043065;28;20451;-72
2022/03/27 12:32:13;;;;;;;15.40;10.13;;;12.40;99.90;;;;;;5043202;28;20533;-72
2022/03/27 12:34:43;;;;;;;14.73;9.30;;;12.50;99.90;;;;;;5064496;28;20447;-76
2022/03/27 12:37:15;;;;;;;12.03;9.33;;;12.40;99.90;;;;;;5048507;28;20516;-77
2022/03/27 12:40:04;;;;;;;15.80;9.37;;;12.50;99.90;;;;;;5046140;28;20988;-71
2022/03/27 12:42:36;;;;;;;18.00;9.20;;;12.60;99.90;;;;;;5062995;28;20478;-70
2022/03/27 12:45:13;;;;;;;15.23;9.53;;;12.60;99.90;;;;;;5061720;28;20508;-71
2022/03/27 12:47:44;;;;;;;14.17;10.13;;;12.60;99.90;;;;;;5062024;28;20443;-71
2022/03/27 12:50:16;;;;;;;12.10;9.03;;;12.70;99.90;;;;;;5054732;28;20459;-71
2022/03/27 12:52:46;;;;;;;14.77;9.90;;;12.70;99.90;;;;;;5054656;28;20472;-71
2022/03/27 12:55:15;;;;;;;15.33;9.53;;;12.80;99.90;;;;;;5063206;28;20435;-73
2022/03/27 12:57:56;;;;;;;10.73;9.40;;;12.70;99.90;;;;;;5062569;28;20510;-70
2022/03/27 13:00:27;;;;;;;12.23;9.23;;;12.80;99.90;;;;;;5061011;28;20481;-70
2022/03/27 13:03:15;;;;;;;15.63;10.50;;;12.80;99.90;;;;;;5060471;28;20681;-72
2022/03/27 13:05:48;;;;;;;11.80;9.67;;;12.90;99.90;;;;;;5062108;28;20428;-70
2022/03/27 13:08:25;;;;;;;14.07;9.23;;;13.00;99.90;;;;;;5061371;28;20724;-70
2022/03/27 13:10:57;;;;;;;15.57;10.00;;;13.00;99.90;;;;;;5060825;28;20458;-71